This is the latest recevied weather packets stored in our database for station/object K0FJ-1. If no packets are shown the sender has not sent any weather packets the latest 10 day(s).
| Time | Temp. | Humidity | Pressure | Rain* | Wind** | Luminosity | Snow |
|---|---|---|---|---|---|---|---|
| 1777689003 | 11.67° C | 45% | 1019.6 hPa | 0 mm | - | - | - |
| 1777688703 | 11.67° C | 44% | 1019.5 hPa | 0 mm | - | - | - |
| 1777669205 | 18.89° C | 26% | 1017.7 hPa | 0 mm | - | - | - |
| 1777665605 | 17.78° C | 27% | 1018.4 hPa | 0 mm | - | - | - |
| 1777663807 | 17.78° C | 30% | 1018.5 hPa | 0 mm | - | - | - |
| 1777659305 | 17.22° C | 34% | 1019 hPa | 0 mm | - | - | - |
| 1777650905 | 14.44° C | 49% | 1019.9 hPa | 0 mm | - | - | - |
| 1777650005 | 13.33° C | 55% | 1019.9 hPa | 0 mm | - | - | - |
| 1777649703 | 13.33° C | 56% | 1019.9 hPa | 0 mm | - | - | - |
| 1777649403 | 13.33° C | 57% | 1019.9 hPa | 0 mm | - | - | - |
| 1777649105 | 12.78° C | 59% | 1019.9 hPa | 0 mm | - | - | - |
| 1777648803 | 12.22° C | 63% | 1019.9 hPa | 0 mm | - | - | - |
| 1777648503 | 12.22° C | 63% | 1020 hPa | 0 mm | - | - | - |
| 1777648203 | 11.67° C | 67% | 1020.1 hPa | 0 mm | - | - | - |
| 1777647905 | 11.11° C | 69% | 1020.1 hPa | 0 mm | - | - | - |
| 1777647005 | 10° C | 74% | 1020.2 hPa | 0 mm | - | - | - |
| 1777646403 | 9.44° C | 75% | 1020.4 hPa | 0 mm | - | - | - |
| 1777646103 | 9.44° C | 77% | 1020.4 hPa | 0 mm | - | - | - |
| 1777645803 | 8.89° C | 80% | 1020.4 hPa | 0 mm | - | - | - |
| 1777645503 | 8.33° C | 80% | 1020.4 hPa | 0 mm | - | - | - |
| 1777645203 | 8.33° C | 81% | 1020.5 hPa | 0 mm | - | - | - |
| 1777644903 | 7.78° C | 82% | 1020.5 hPa | 0 mm | - | - | - |
| 1777644603 | 7.78° C | 83% | 1020.5 hPa | 0 mm | - | - | - |
| 1777642803 | 5° C | 92% | 1020.6 hPa | 0 mm | - | - | - |
| 1777642503 | 4.44° C | 93% | 1020.7 hPa | 0 mm | - | - | - |
* Rain latest hour (hover to see other rain measurements)
** Current wind speed in m/s (hover to see current wind gust speed)